sensor_id;sensor_type;location;lat;lon;timestamp;pressure;altitude;pressure_sealevel;temperature;humidity
27984;BME280;15317;50.360;8.726;2023-06-04T00:01:38;99749.16;;;13.22;53.54
27984;BME280;15317;50.360;8.726;2023-06-04T00:06:43;99753.06;;;13.19;53.24
27984;BME280;15317;50.360;8.726;2023-06-04T00:11:47;99749.66;;;13.09;54.23
27984;BME280;15317;50.360;8.726;2023-06-04T00:16:50;99747.41;;;13.04;54.05
27984;BME280;15317;50.360;8.726;2023-06-04T00:21:55;99745.53;;;13.05;53.11
27984;BME280;15317;50.360;8.726;2023-06-04T00:26:58;99738.03;;;12.99;54.16
27984;BME280;15317;50.360;8.726;2023-06-04T00:32:02;99733.09;;;12.86;54.99
27984;BME280;15317;50.360;8.726;2023-06-04T00:37:08;99730.84;;;12.65;57.20
27984;BME280;15317;50.360;8.726;2023-06-04T00:42:11;99740.03;;;12.64;56.09
27984;BME280;15317;50.360;8.726;2023-06-04T00:47:16;99737.28;;;12.48;57.42
27984;BME280;15317;50.360;8.726;2023-06-04T00:52:21;99745.81;;;12.53;56.64
27984;BME280;15317;50.360;8.726;2023-06-04T00:57:24;99738.81;;;12.51;56.82
27984;BME280;15317;50.360;8.726;2023-06-04T01:02:28;99738.09;;;12.41;57.43
27984;BME280;15317;50.360;8.726;2023-06-04T01:07:35;99745.59;;;12.39;57.49
27984;BME280;15317;50.360;8.726;2023-06-04T01:12:39;99748.31;;;12.39;57.62
27984;BME280;15317;50.360;8.726;2023-06-04T01:17:44;99742.16;;;12.37;57.40
27984;BME280;15317;50.360;8.726;2023-06-04T01:23:05;99744.69;;;12.30;58.22
27984;BME280;15317;50.360;8.726;2023-06-04T01:28:15;99735.63;;;12.21;58.29
27984;BME280;15317;50.360;8.726;2023-06-04T01:33:19;99741.94;;;12.14;59.06
27984;BME280;15317;50.360;8.726;2023-06-04T01:38:24;99744.97;;;12.11;58.81
27984;BME280;15317;50.360;8.726;2023-06-04T01:43:27;99742.91;;;12.05;59.60
27984;BME280;15317;50.360;8.726;2023-06-04T01:48:31;99745.41;;;11.98;59.93
27984;BME280;15317;50.360;8.726;2023-06-04T01:53:36;99728.03;;;11.91;59.65
27984;BME280;15317;50.360;8.726;2023-06-04T01:58:40;99740.94;;;11.89;59.36
27984;BME280;15317;50.360;8.726;2023-06-04T02:03:44;99737.50;;;11.79;60.20
27984;BME280;15317;50.360;8.726;2023-06-04T02:08:48;99735.00;;;11.68;61.84
27984;BME280;15317;50.360;8.726;2023-06-04T02:13:52;99741.31;;;11.42;63.38
27984;BME280;15317;50.360;8.726;2023-06-04T02:18:55;99741.22;;;11.34;63.17
27984;BME280;15317;50.360;8.726;2023-06-04T02:24:02;99739.22;;;11.36;62.50
27984;BME280;15317;50.360;8.726;2023-06-04T02:29:05;99742.16;;;11.43;62.50
27984;BME280;15317;50.360;8.726;2023-06-04T02:34:09;99747.38;;;11.36;62.15
27984;BME280;15317;50.360;8.726;2023-06-04T02:39:13;99740.88;;;11.29;63.08
27984;BME280;15317;50.360;8.726;2023-06-04T02:44:17;99744.38;;;11.22;63.94
27984;BME280;15317;50.360;8.726;2023-06-04T02:49:21;99739.03;;;11.12;63.70
27984;BME280;15317;50.360;8.726;2023-06-04T02:54:26;99746.94;;;11.05;65.22
27984;BME280;15317;50.360;8.726;2023-06-04T02:59:29;99750.84;;;11.03;65.27
27984;BME280;15317;50.360;8.726;2023-06-04T03:04:36;99734.84;;;11.00;63.94
27984;BME280;15317;50.360;8.726;2023-06-04T03:09:41;99742.13;;;10.99;64.04
27984;BME280;15317;50.360;8.726;2023-06-04T03:14:44;99753.34;;;10.96;64.92
27984;BME280;15317;50.360;8.726;2023-06-04T03:19:48;99753.78;;;10.92;64.85
27984;BME280;15317;50.360;8.726;2023-06-04T03:24:52;99750.69;;;10.87;65.89
27984;BME280;15317;50.360;8.726;2023-06-04T03:29:56;99753.09;;;10.90;65.01
27984;BME280;15317;50.360;8.726;2023-06-04T03:34:59;99756.44;;;10.84;65.18
27984;BME280;15317;50.360;8.726;2023-06-04T03:40:06;99753.31;;;10.79;65.38
27984;BME280;15317;50.360;8.726;2023-06-04T03:45:10;99751.44;;;10.79;66.08
27984;BME280;15317;50.360;8.726;2023-06-04T03:50:13;99744.88;;;10.82;65.37
27984;BME280;15317;50.360;8.726;2023-06-04T03:55:18;99750.25;;;10.91;64.49
27984;BME280;15317;50.360;8.726;2023-06-04T04:00:22;99768.06;;;10.94;65.13
27984;BME280;15317;50.360;8.726;2023-06-04T04:05:25;99754.88;;;10.99;64.27
27984;BME280;15317;50.360;8.726;2023-06-04T04:10:30;99747.75;;;10.98;64.48
27984;BME280;15317;50.360;8.726;2023-06-04T04:15:34;99752.00;;;11.00;64.68
27984;BME280;15317;50.360;8.726;2023-06-04T04:20:37;99758.63;;;10.98;65.02
27984;BME280;15317;50.360;8.726;2023-06-04T04:25:42;99764.06;;;10.98;65.23
27984;BME280;15317;50.360;8.726;2023-06-04T04:30:46;99757.00;;;11.05;65.87
27984;BME280;15317;50.360;8.726;2023-06-04T04:35:50;99768.47;;;11.17;65.24
27984;BME280;15317;50.360;8.726;2023-06-04T04:40:55;99764.75;;;11.18;65.18
27984;BME280;15317;50.360;8.726;2023-06-04T04:45:59;99769.06;;;11.28;64.32
27984;BME280;15317;50.360;8.726;2023-06-04T04:51:02;99775.34;;;11.29;65.71
27984;BME280;15317;50.360;8.726;2023-06-04T04:56:08;99772.22;;;11.41;66.28
27984;BME280;15317;50.360;8.726;2023-06-04T05:01:11;99773.31;;;11.48;65.12
27984;BME280;15317;50.360;8.726;2023-06-04T05:06:15;99774.00;;;11.51;65.27
27984;BME280;15317;50.360;8.726;2023-06-04T05:11:19;99783.94;;;11.60;64.81
27984;BME280;15317;50.360;8.726;2023-06-04T05:16:24;99786.88;;;11.66;64.61
27984;BME280;15317;50.360;8.726;2023-06-04T05:21:30;99792.59;;;11.81;65.29
27984;BME280;15317;50.360;8.726;2023-06-04T05:26:35;99796.13;;;11.99;65.43
27984;BME280;15317;50.360;8.726;2023-06-04T05:31:39;99795.53;;;12.13;64.94
27984;BME280;15317;50.360;8.726;2023-06-04T05:36:43;99799.50;;;12.27;65.36
27984;BME280;15317;50.360;8.726;2023-06-04T05:41:48;99811.47;;;12.42;64.13
27984;BME280;15317;50.360;8.726;2023-06-04T05:46:51;99809.69;;;12.59;64.47
27984;BME280;15317;50.360;8.726;2023-06-04T05:51:55;99812.47;;;12.75;63.19
27984;BME280;15317;50.360;8.726;2023-06-04T05:57:00;99817.28;;;12.97;60.81
27984;BME280;15317;50.360;8.726;2023-06-04T06:02:03;99819.91;;;13.15;61.37
27984;BME280;15317;50.360;8.726;2023-06-04T06:07:07;99832.53;;;13.40;61.26
27984;BME280;15317;50.360;8.726;2023-06-04T06:12:12;99829.16;;;13.63;59.98
27984;BME280;15317;50.360;8.726;2023-06-04T06:17:15;99825.50;;;14.03;59.94
27984;BME280;15317;50.360;8.726;2023-06-04T06:22:19;99824.94;;;14.79;57.74
27984;BME280;15317;50.360;8.726;2023-06-04T06:27:24;99830.25;;;15.94;52.90
27984;BME280;15317;50.360;8.726;2023-06-04T06:32:28;99840.13;;;16.91;50.83
27984;BME280;15317;50.360;8.726;2023-06-04T06:37:31;99848.16;;;17.65;49.46
27984;BME280;15317;50.360;8.726;2023-06-04T06:42:36;99847.59;;;18.25;47.71
27984;BME280;15317;50.360;8.726;2023-06-04T06:47:39;99849.13;;;18.28;47.48
27984;BME280;15317;50.360;8.726;2023-06-04T06:52:42;99857.78;;;19.48;45.96
27984;BME280;15317;50.360;8.726;2023-06-04T06:57:47;99862.53;;;20.20;43.85
27984;BME280;15317;50.360;8.726;2023-06-04T07:02:50;99861.88;;;20.37;44.18
27984;BME280;15317;50.360;8.726;2023-06-04T07:07:54;99869.66;;;20.80;45.37
27984;BME280;15317;50.360;8.726;2023-06-04T07:13:00;99873.38;;;21.63;41.93
27984;BME280;15317;50.360;8.726;2023-06-04T07:18:03;99880.16;;;21.92;41.42
27984;BME280;15317;50.360;8.726;2023-06-04T07:23:07;99878.41;;;22.78;39.96
27984;BME280;15317;50.360;8.726;2023-06-04T07:28:12;99886.84;;;22.59;39.89
27984;BME280;15317;50.360;8.726;2023-06-04T07:33:15;99877.03;;;23.36;38.79
27984;BME280;15317;50.360;8.726;2023-06-04T07:38:21;99875.00;;;23.91;37.89
27984;BME280;15317;50.360;8.726;2023-06-04T07:43:26;99880.56;;;24.02;38.44
27984;BME280;15317;50.360;8.726;2023-06-04T07:48:29;99891.72;;;24.14;36.84
27984;BME280;15317;50.360;8.726;2023-06-04T07:53:33;99891.44;;;24.04;35.20
27984;BME280;15317;50.360;8.726;2023-06-04T07:58:39;99894.31;;;24.74;32.98
27984;BME280;15317;50.360;8.726;2023-06-04T08:03:42;99891.19;;;24.94;31.51
27984;BME280;15317;50.360;8.726;2023-06-04T08:08:46;99896.66;;;25.40;32.73
27984;BME280;15317;50.360;8.726;2023-06-04T08:13:53;99896.75;;;25.45;32.88
27984;BME280;15317;50.360;8.726;2023-06-04T08:18:56;99896.25;;;26.33;30.38
27984;BME280;15317;50.360;8.726;2023-06-04T08:23:59;99894.50;;;26.83;31.07
27984;BME280;15317;50.360;8.726;2023-06-04T08:29:04;99894.16;;;25.95;29.99
27984;BME280;15317;50.360;8.726;2023-06-04T08:34:07;99888.81;;;25.37;30.60
27984;BME280;15317;50.360;8.726;2023-06-04T08:39:11;99894.38;;;25.37;31.89
27984;BME280;15317;50.360;8.726;2023-06-04T08:44:16;99899.13;;;26.39;30.11
27984;BME280;15317;50.360;8.726;2023-06-04T08:49:21;99906.19;;;26.63;29.42
27984;BME280;15317;50.360;8.726;2023-06-04T08:54:25;99900.13;;;26.49;29.56
27984;BME280;15317;50.360;8.726;2023-06-04T08:59:30;99889.78;;;27.43;29.08
27984;BME280;15317;50.360;8.726;2023-06-04T09:04:34;99900.00;;;27.33;26.93
27984;BME280;15317;50.360;8.726;2023-06-04T09:09:39;99895.69;;;27.03;30.18
27984;BME280;15317;50.360;8.726;2023-06-04T09:14:44;99898.09;;;26.45;28.45
27984;BME280;15317;50.360;8.726;2023-06-04T09:19:48;99908.72;;;26.81;29.55
27984;BME280;15317;50.360;8.726;2023-06-04T09:24:52;99903.66;;;26.78;28.36
27984;BME280;15317;50.360;8.726;2023-06-04T09:29:58;99898.31;;;28.29;28.77
27984;BME280;15317;50.360;8.726;2023-06-04T09:35:09;99899.53;;;28.38;28.14
27984;BME280;15317;50.360;8.726;2023-06-04T09:40:13;99907.97;;;28.48;25.38
27984;BME280;15317;50.360;8.726;2023-06-04T09:45:28;99907.84;;;27.58;25.98
27984;BME280;15317;50.360;8.726;2023-06-04T09:50:33;99906.53;;;27.65;26.12
27984;BME280;15317;50.360;8.726;2023-06-04T09:55:39;99899.88;;;27.66;27.34
27984;BME280;15317;50.360;8.726;2023-06-04T10:00:44;99904.75;;;28.03;27.58
27984;BME280;15317;50.360;8.726;2023-06-04T10:05:49;99889.47;;;27.83;27.56
27984;BME280;15317;50.360;8.726;2023-06-04T10:10:55;99890.78;;;28.66;27.32
27984;BME280;15317;50.360;8.726;2023-06-04T10:16:01;99891.13;;;29.12;27.92
27984;BME280;15317;50.360;8.726;2023-06-04T10:21:06;99889.91;;;28.98;25.11
27984;BME280;15317;50.360;8.726;2023-06-04T10:26:13;99884.81;;;27.67;25.40
27984;BME280;15317;50.360;8.726;2023-06-04T10:31:18;99884.69;;;29.17;23.91
27984;BME280;15317;50.360;8.726;2023-06-04T10:36:23;99890.75;;;28.61;25.04
27984;BME280;15317;50.360;8.726;2023-06-04T10:41:26;99882.91;;;28.00;27.64
27984;BME280;15317;50.360;8.726;2023-06-04T10:46:39;99878.22;;;27.78;24.42
27984;BME280;15317;50.360;8.726;2023-06-04T10:51:43;99888.63;;;27.83;23.90
27984;BME280;15317;50.360;8.726;2023-06-04T10:56:47;99874.38;;;27.36;24.04
27984;BME280;15317;50.360;8.726;2023-06-04T11:01:51;99885.00;;;27.61;24.77
27984;BME280;15317;50.360;8.726;2023-06-04T11:07:01;99880.31;;;27.01;25.09
27984;BME280;15317;50.360;8.726;2023-06-04T11:12:06;99871.44;;;27.26;23.22
27984;BME280;15317;50.360;8.726;2023-06-04T11:17:11;99865.63;;;27.27;24.97
27984;BME280;15317;50.360;8.726;2023-06-04T11:22:14;99873.44;;;28.01;23.75
27984;BME280;15317;50.360;8.726;2023-06-04T11:27:18;99864.69;;;28.19;25.11
27984;BME280;15317;50.360;8.726;2023-06-04T11:32:38;99868.66;;;29.02;23.16
27984;BME280;15317;50.360;8.726;2023-06-04T11:37:53;99858.53;;;27.41;22.08
27984;BME280;15317;50.360;8.726;2023-06-04T11:42:56;99868.88;;;28.53;24.71
27984;BME280;15317;50.360;8.726;2023-06-04T11:48:01;99855.78;;;29.01;25.45
27984;BME280;15317;50.360;8.726;2023-06-04T11:53:07;99852.13;;;29.53;23.60
27984;BME280;15317;50.360;8.726;2023-06-04T11:58:10;99857.78;;;29.73;23.64
27984;BME280;15317;50.360;8.726;2023-06-04T12:03:15;99855.03;;;29.88;24.19
27984;BME280;15317;50.360;8.726;2023-06-04T12:08:19;99834.81;;;28.98;24.91
27984;BME280;15317;50.360;8.726;2023-06-04T12:13:22;99839.19;;;29.36;25.76
27984;BME280;15317;50.360;8.726;2023-06-04T12:18:27;99841.16;;;28.84;23.60
27984;BME280;15317;50.360;8.726;2023-06-04T12:23:30;99840.31;;;27.34;22.99
27984;BME280;15317;50.360;8.726;2023-06-04T12:28:34;99840.94;;;28.95;25.02
27984;BME280;15317;50.360;8.726;2023-06-04T12:33:40;99827.81;;;28.17;21.86
27984;BME280;15317;50.360;8.726;2023-06-04T12:38:44;99833.63;;;29.41;25.00
27984;BME280;15317;50.360;8.726;2023-06-04T12:43:49;99837.53;;;28.46;23.70
27984;BME280;15317;50.360;8.726;2023-06-04T12:48:54;99835.19;;;28.70;24.97
27984;BME280;15317;50.360;8.726;2023-06-04T12:53:58;99821.16;;;28.23;24.13
27984;BME280;15317;50.360;8.726;2023-06-04T12:59:01;99819.16;;;27.91;25.82
27984;BME280;15317;50.360;8.726;2023-06-04T13:04:06;99821.97;;;28.60;28.39
27984;BME280;15317;50.360;8.726;2023-06-04T13:09:09;99817.03;;;28.73;24.55
27984;BME280;15317;50.360;8.726;2023-06-04T13:14:13;99814.09;;;29.72;24.88
27984;BME280;15317;50.360;8.726;2023-06-04T13:19:17;99816.53;;;28.81;23.24
27984;BME280;15317;50.360;8.726;2023-06-04T13:24:22;99800.16;;;27.57;24.29
27984;BME280;15317;50.360;8.726;2023-06-04T13:29:26;99804.94;;;28.20;24.47
27984;BME280;15317;50.360;8.726;2023-06-04T13:34:31;99801.28;;;29.08;25.70
27984;BME280;15317;50.360;8.726;2023-06-04T13:39:35;99795.78;;;28.72;25.64
27984;BME280;15317;50.360;8.726;2023-06-04T13:44:38;99794.53;;;28.94;26.69
27984;BME280;15317;50.360;8.726;2023-06-04T13:49:43;99798.97;;;28.43;25.14
27984;BME280;15317;50.360;8.726;2023-06-04T13:54:47;99787.16;;;27.45;24.22
27984;BME280;15317;50.360;8.726;2023-06-04T13:59:50;99774.59;;;27.43;26.14
27984;BME280;15317;50.360;8.726;2023-06-04T14:04:55;99773.78;;;27.21;27.40
27984;BME280;15317;50.360;8.726;2023-06-04T14:09:58;99767.41;;;27.79;27.33
27984;BME280;15317;50.360;8.726;2023-06-04T14:15:02;99766.78;;;27.45;25.50
27984;BME280;15317;50.360;8.726;2023-06-04T14:20:07;99757.78;;;27.38;29.26
27984;BME280;15317;50.360;8.726;2023-06-04T14:25:10;99758.66;;;27.43;26.05
27984;BME280;15317;50.360;8.726;2023-06-04T14:30:14;99758.41;;;27.45;26.61
27984;BME280;15317;50.360;8.726;2023-06-04T14:35:19;99754.47;;;26.92;27.51
27984;BME280;15317;50.360;8.726;2023-06-04T14:40:22;99751.78;;;26.59;27.13
27984;BME280;15317;50.360;8.726;2023-06-04T14:45:26;99754.31;;;26.82;26.63
27984;BME280;15317;50.360;8.726;2023-06-04T14:50:30;99738.78;;;26.26;28.42
27984;BME280;15317;50.360;8.726;2023-06-04T14:55:34;99735.63;;;25.55;27.10
27984;BME280;15317;50.360;8.726;2023-06-04T15:00:37;99736.03;;;25.47;28.47
27984;BME280;15317;50.360;8.726;2023-06-04T15:05:42;99733.28;;;25.19;28.06
27984;BME280;15317;50.360;8.726;2023-06-04T15:10:46;99729.41;;;25.20;28.48
27984;BME280;15317;50.360;8.726;2023-06-04T15:15:49;99726.47;;;25.10;28.99
27984;BME280;15317;50.360;8.726;2023-06-04T15:20:53;99742.63;;;25.13;27.76
27984;BME280;15317;50.360;8.726;2023-06-04T15:25:58;99724.72;;;24.80;27.56
27984;BME280;15317;50.360;8.726;2023-06-04T15:31:01;99725.06;;;24.84;29.54
27984;BME280;15317;50.360;8.726;2023-06-04T15:36:06;99725.66;;;24.98;28.19
27984;BME280;15317;50.360;8.726;2023-06-04T15:41:10;99721.09;;;24.92;27.78
27984;BME280;15317;50.360;8.726;2023-06-04T15:46:13;99720.91;;;25.10;27.96
27984;BME280;15317;50.360;8.726;2023-06-04T15:51:18;99719.94;;;24.64;28.67
27984;BME280;15317;50.360;8.726;2023-06-04T15:56:21;99715.22;;;24.76;28.85
27984;BME280;15317;50.360;8.726;2023-06-04T16:01:26;99722.84;;;25.26;27.94
27984;BME280;15317;50.360;8.726;2023-06-04T16:06:30;99717.75;;;26.18;26.63
27984;BME280;15317;50.360;8.726;2023-06-04T16:11:35;99720.53;;;26.95;25.67
27984;BME280;15317;50.360;8.726;2023-06-04T16:16:38;99718.63;;;27.28;24.11
27984;BME280;15317;50.360;8.726;2023-06-04T16:21:43;99710.75;;;27.78;23.89
27984;BME280;15317;50.360;8.726;2023-06-04T16:26:46;99723.06;;;28.14;23.03
27984;BME280;15317;50.360;8.726;2023-06-04T16:31:50;99718.13;;;28.79;23.28
27984;BME280;15317;50.360;8.726;2023-06-04T16:36:55;99716.53;;;28.04;23.32
27984;BME280;15317;50.360;8.726;2023-06-04T16:41:59;99717.91;;;28.90;23.82
27984;BME280;15317;50.360;8.726;2023-06-04T16:47:05;99723.97;;;27.88;24.25
27984;BME280;15317;50.360;8.726;2023-06-04T16:52:09;99728.75;;;28.77;22.71
27984;BME280;15317;50.360;8.726;2023-06-04T16:57:13;99714.53;;;28.36;23.21
27984;BME280;15317;50.360;8.726;2023-06-04T17:02:17;99722.84;;;27.57;23.33
27984;BME280;15317;50.360;8.726;2023-06-04T17:07:21;99723.31;;;27.49;23.34
27984;BME280;15317;50.360;8.726;2023-06-04T17:12:25;99716.72;;;27.06;22.55
27984;BME280;15317;50.360;8.726;2023-06-04T17:17:28;99722.94;;;26.26;23.91
27984;BME280;15317;50.360;8.726;2023-06-04T17:22:33;99713.63;;;25.37;26.51
27984;BME280;15317;50.360;8.726;2023-06-04T17:27:36;99718.56;;;24.78;26.95
27984;BME280;15317;50.360;8.726;2023-06-04T17:32:40;99713.19;;;24.60;27.82
27984;BME280;15317;50.360;8.726;2023-06-04T17:37:44;99717.59;;;25.41;26.50
27984;BME280;15317;50.360;8.726;2023-06-04T17:42:47;99720.06;;;25.88;25.86
27984;BME280;15317;50.360;8.726;2023-06-04T17:47:51;99714.56;;;24.23;26.69
27984;BME280;15317;50.360;8.726;2023-06-04T17:52:55;99704.28;;;22.82;28.81
27984;BME280;15317;50.360;8.726;2023-06-04T17:58:01;99709.41;;;22.30;29.65
27984;BME280;15317;50.360;8.726;2023-06-04T18:03:04;99709.16;;;21.89;31.76
27984;BME280;15317;50.360;8.726;2023-06-04T18:08:10;99710.13;;;21.51;32.22
27984;BME280;15317;50.360;8.726;2023-06-04T18:13:13;99712.66;;;21.28;32.55
27984;BME280;15317;50.360;8.726;2023-06-04T18:18:17;99710.28;;;21.00;34.41
27984;BME280;15317;50.360;8.726;2023-06-04T18:23:22;99718.47;;;20.75;34.43
27984;BME280;15317;50.360;8.726;2023-06-04T18:28:25;99719.00;;;20.53;35.50
27984;BME280;15317;50.360;8.726;2023-06-04T18:33:28;99715.03;;;20.29;34.27
27984;BME280;15317;50.360;8.726;2023-06-04T18:38:33;99719.72;;;20.15;34.50
27984;BME280;15317;50.360;8.726;2023-06-04T18:43:37;99719.38;;;19.98;35.38
27984;BME280;15317;50.360;8.726;2023-06-04T18:48:40;99722.16;;;19.79;36.74
27984;BME280;15317;50.360;8.726;2023-06-04T18:53:45;99717.28;;;19.61;37.18
27984;BME280;15317;50.360;8.726;2023-06-04T18:58:49;99726.34;;;19.42;38.34
27984;BME280;15317;50.360;8.726;2023-06-04T19:03:54;99722.94;;;19.13;39.42
27984;BME280;15317;50.360;8.726;2023-06-04T19:08:58;99717.38;;;18.87;39.67
27984;BME280;15317;50.360;8.726;2023-06-04T19:14:02;99718.56;;;18.65;40.20
27984;BME280;15317;50.360;8.726;2023-06-04T19:19:06;99730.78;;;18.49;40.01
27984;BME280;15317;50.360;8.726;2023-06-04T19:24:12;99730.41;;;18.24;41.69
27984;BME280;15317;50.360;8.726;2023-06-04T19:29:15;99735.16;;;18.02;40.42
27984;BME280;15317;50.360;8.726;2023-06-04T19:34:19;99751.59;;;17.96;40.41
27984;BME280;15317;50.360;8.726;2023-06-04T19:39:25;99749.19;;;17.80;41.12
27984;BME280;15317;50.360;8.726;2023-06-04T19:44:28;99760.69;;;17.68;41.90
27984;BME280;15317;50.360;8.726;2023-06-04T19:49:31;99757.38;;;17.52;41.89
27984;BME280;15317;50.360;8.726;2023-06-04T19:54:36;99770.63;;;17.48;40.49
27984;BME280;15317;50.360;8.726;2023-06-04T19:59:40;99782.28;;;17.50;40.88
27984;BME280;15317;50.360;8.726;2023-06-04T20:04:43;99774.41;;;17.47;41.17
27984;BME280;15317;50.360;8.726;2023-06-04T20:09:48;99781.56;;;17.42;40.84
27984;BME280;15317;50.360;8.726;2023-06-04T20:14:51;99783.19;;;17.36;41.04
27984;BME280;15317;50.360;8.726;2023-06-04T20:19:54;99786.91;;;17.28;41.39
27984;BME280;15317;50.360;8.726;2023-06-04T20:24:59;99785.44;;;17.26;40.86
27984;BME280;15317;50.360;8.726;2023-06-04T20:30:04;99784.75;;;17.24;40.40
27984;BME280;15317;50.360;8.726;2023-06-04T20:35:08;99787.25;;;17.19;40.24
27984;BME280;15317;50.360;8.726;2023-06-04T20:40:13;99794.91;;;17.23;40.67
27984;BME280;15317;50.360;8.726;2023-06-04T20:45:16;99797.81;;;17.22;40.11
27984;BME280;15317;50.360;8.726;2023-06-04T20:50:20;99790.63;;;17.21;39.34
27984;BME280;15317;50.360;8.726;2023-06-04T20:55:26;99795.19;;;17.14;39.96
27984;BME280;15317;50.360;8.726;2023-06-04T21:00:30;99794.28;;;17.07;40.21
27984;BME280;15317;50.360;8.726;2023-06-04T21:05:33;99803.09;;;17.02;40.52
27984;BME280;15317;50.360;8.726;2023-06-04T21:10:38;99809.75;;;16.93;40.86
27984;BME280;15317;50.360;8.726;2023-06-04T21:15:42;99812.53;;;16.78;42.12
27984;BME280;15317;50.360;8.726;2023-06-04T21:20:46;99809.81;;;16.64;42.80
27984;BME280;15317;50.360;8.726;2023-06-04T21:25:50;99813.00;;;16.38;45.12
27984;BME280;15317;50.360;8.726;2023-06-04T21:30:54;99809.97;;;16.33;43.62
27984;BME280;15317;50.360;8.726;2023-06-04T21:35:57;99806.56;;;16.01;46.16
27984;BME280;15317;50.360;8.726;2023-06-04T21:41:02;99807.75;;;15.84;46.19
27984;BME280;15317;50.360;8.726;2023-06-04T21:46:05;99804.16;;;15.69;46.80
27984;BME280;15317;50.360;8.726;2023-06-04T21:51:09;99812.72;;;15.66;45.10
27984;BME280;15317;50.360;8.726;2023-06-04T21:56:14;99819.97;;;15.59;46.35
27984;BME280;15317;50.360;8.726;2023-06-04T22:01:17;99812.56;;;15.36;47.35
27984;BME280;15317;50.360;8.726;2023-06-04T22:06:21;99819.50;;;15.24;47.77
27984;BME280;15317;50.360;8.726;2023-06-04T22:11:25;99814.81;;;15.10;46.58
27984;BME280;15317;50.360;8.726;2023-06-04T22:16:29;99808.78;;;14.92;49.08
27984;BME280;15317;50.360;8.726;2023-06-04T22:21:33;99805.53;;;14.88;47.72
27984;BME280;15317;50.360;8.726;2023-06-04T22:26:38;99809.84;;;14.83;48.85
27984;BME280;15317;50.360;8.726;2023-06-04T22:31:42;99810.22;;;14.80;48.04
27984;BME280;15317;50.360;8.726;2023-06-04T22:36:46;99817.75;;;14.78;48.15
27984;BME280;15317;50.360;8.726;2023-06-04T22:41:51;99808.72;;;14.69;48.54
27984;BME280;15317;50.360;8.726;2023-06-04T22:46:55;99807.88;;;14.69;47.81
27984;BME280;15317;50.360;8.726;2023-06-04T22:51:58;99794.59;;;14.66;47.83
27984;BME280;15317;50.360;8.726;2023-06-04T22:57:04;99798.72;;;14.53;48.90
27984;BME280;15317;50.360;8.726;2023-06-04T23:02:08;99803.53;;;14.51;49.11
27984;BME280;15317;50.360;8.726;2023-06-04T23:07:11;99802.16;;;14.47;49.14
27984;BME280;15317;50.360;8.726;2023-06-04T23:12:16;99796.22;;;14.44;48.15
27984;BME280;15317;50.360;8.726;2023-06-04T23:17:19;99789.19;;;14.49;48.14
27984;BME280;15317;50.360;8.726;2023-06-04T23:22:23;99787.47;;;14.48;48.44
27984;BME280;15317;50.360;8.726;2023-06-04T23:27:28;99791.06;;;14.49;47.40
27984;BME280;15317;50.360;8.726;2023-06-04T23:32:32;99792.94;;;14.48;47.32
27984;BME280;15317;50.360;8.726;2023-06-04T23:37:35;99797.22;;;14.51;47.37
27984;BME280;15317;50.360;8.726;2023-06-04T23:42:41;99798.41;;;14.48;48.09
27984;BME280;15317;50.360;8.726;2023-06-04T23:47:44;99781.28;;;14.54;47.26
27984;BME280;15317;50.360;8.726;2023-06-04T23:52:47;99782.88;;;14.49;47.89
27984;BME280;15317;50.360;8.726;2023-06-04T23:57:52;99780.69;;;14.44;47.90
